sensor_id;sensor_type;location;lat;lon;timestamp;pressure;altitude;pressure_sealevel;temperature;humidity
13690;BME280;6917;52.194;9.894;2023-02-08T00:00:34;102841.34;;;-2.81;96.33
13690;BME280;6917;52.194;9.894;2023-02-08T00:02:59;102841.47;;;-2.90;96.21
13690;BME280;6917;52.194;9.894;2023-02-08T00:05:24;102834.13;;;-2.96;95.97
13690;BME280;6917;52.194;9.894;2023-02-08T00:07:50;102832.94;;;-3.02;96.18
13690;BME280;6917;52.194;9.894;2023-02-08T00:10:15;102838.59;;;-3.05;96.22
13690;BME280;6917;52.194;9.894;2023-02-08T00:12:40;102834.41;;;-3.08;97.03
13690;BME280;6917;52.194;9.894;2023-02-08T00:15:06;102831.91;;;-3.09;96.94
13690;BME280;6917;52.194;9.894;2023-02-08T00:17:31;102824.38;;;-3.14;97.06
13690;BME280;6917;52.194;9.894;2023-02-08T00:19:57;102824.75;;;-3.01;97.52
13690;BME280;6917;52.194;9.894;2023-02-08T00:22:22;102812.31;;;-3.26;97.21
13690;BME280;6917;52.194;9.894;2023-02-08T00:24:49;102813.94;;;-3.33;97.44
13690;BME280;6917;52.194;9.894;2023-02-08T00:27:15;102819.94;;;-3.39;97.65
13690;BME280;6917;52.194;9.894;2023-02-08T00:29:41;102808.59;;;-3.33;97.57
13690;BME280;6917;52.194;9.894;2023-02-08T00:32:06;102816.25;;;-3.38;97.86
13690;BME280;6917;52.194;9.894;2023-02-08T00:34:31;102807.91;;;-3.43;97.40
13690;BME280;6917;52.194;9.894;2023-02-08T00:36:59;102818.81;;;-3.63;97.85
13690;BME280;6917;52.194;9.894;2023-02-08T00:39:24;102818.28;;;-3.66;98.19
13690;BME280;6917;52.194;9.894;2023-02-08T00:41:50;102820.28;;;-3.68;98.92
13690;BME280;6917;52.194;9.894;2023-02-08T00:44:15;102822.28;;;-3.70;99.07
13690;BME280;6917;52.194;9.894;2023-02-08T00:46:40;102820.97;;;-3.66;99.40
13690;BME280;6917;52.194;9.894;2023-02-08T00:49:06;102819.34;;;-3.59;99.96
13690;BME280;6917;52.194;9.894;2023-02-08T00:51:31;102814.59;;;-3.39;99.60
13690;BME280;6917;52.194;9.894;2023-02-08T00:53:56;102809.28;;;-3.31;99.74
13690;BME280;6917;52.194;9.894;2023-02-08T00:56:21;102812.50;;;-3.11;99.92
13690;BME280;6917;52.194;9.894;2023-02-08T00:58:47;102807.47;;;-3.22;98.98
13690;BME280;6917;52.194;9.894;2023-02-08T01:01:12;102823.16;;;-3.27;98.93
13690;BME280;6917;52.194;9.894;2023-02-08T01:03:39;102816.69;;;-3.17;99.18
13690;BME280;6917;52.194;9.894;2023-02-08T01:06:09;102820.19;;;-3.16;98.97
13690;BME280;6917;52.194;9.894;2023-02-08T01:08:35;102817.03;;;-3.12;98.70
13690;BME280;6917;52.194;9.894;2023-02-08T01:11:03;102820.72;;;-3.05;98.30
13690;BME280;6917;52.194;9.894;2023-02-08T01:13:28;102827.44;;;-3.01;98.08
13690;BME280;6917;52.194;9.894;2023-02-08T01:15:54;102830.09;;;-2.92;97.66
13690;BME280;6917;52.194;9.894;2023-02-08T01:18:19;102828.47;;;-2.85;97.04
13690;BME280;6917;52.194;9.894;2023-02-08T01:20:44;102821.06;;;-2.91;96.92
13690;BME280;6917;52.194;9.894;2023-02-08T01:23:10;102822.41;;;-3.04;96.31
13690;BME280;6917;52.194;9.894;2023-02-08T01:25:35;102823.00;;;-3.26;96.11
13690;BME280;6917;52.194;9.894;2023-02-08T01:28:00;102828.16;;;-3.24;96.42
13690;BME280;6917;52.194;9.894;2023-02-08T01:30:25;102824.72;;;-3.09;96.36
13690;BME280;6917;52.194;9.894;2023-02-08T01:32:51;102818.03;;;-3.13;96.27
13690;BME280;6917;52.194;9.894;2023-02-08T01:35:16;102813.22;;;-3.01;96.20
13690;BME280;6917;52.194;9.894;2023-02-08T01:37:41;102808.69;;;-3.09;95.79
13690;BME280;6917;52.194;9.894;2023-02-08T01:40:07;102799.09;;;-3.19;95.00
13690;BME280;6917;52.194;9.894;2023-02-08T01:42:32;102803.63;;;-3.20;94.99
13690;BME280;6917;52.194;9.894;2023-02-08T01:45:20;102795.59;;;-3.20;94.98
13690;BME280;6917;52.194;9.894;2023-02-08T01:47:50;102797.97;;;-3.17;95.35
13690;BME280;6917;52.194;9.894;2023-02-08T01:50:21;102796.31;;;-3.18;95.37
13690;BME280;6917;52.194;9.894;2023-02-08T01:52:48;102810.19;;;-3.06;95.69
13690;BME280;6917;52.194;9.894;2023-02-08T01:55:20;102799.66;;;-3.16;95.50
13690;BME280;6917;52.194;9.894;2023-02-08T01:57:47;102812.19;;;-3.08;95.26
13690;BME280;6917;52.194;9.894;2023-02-08T02:00:19;102804.50;;;-3.11;94.99
13690;BME280;6917;52.194;9.894;2023-02-08T02:02:49;102799.28;;;-3.21;94.63
13690;BME280;6917;52.194;9.894;2023-02-08T02:05:19;102787.53;;;-3.36;94.48
13690;BME280;6917;52.194;9.894;2023-02-08T02:07:45;102785.69;;;-3.36;95.08
13690;BME280;6917;52.194;9.894;2023-02-08T02:10:15;102789.19;;;-3.35;94.46
13690;BME280;6917;52.194;9.894;2023-02-08T02:12:43;102793.69;;;-3.44;94.15
13690;BME280;6917;52.194;9.894;2023-02-08T02:15:10;102798.50;;;-3.55;94.90
13690;BME280;6917;52.194;9.894;2023-02-08T02:17:36;102800.09;;;-3.71;94.48
13690;BME280;6917;52.194;9.894;2023-02-08T02:32:33;102795.50;;;-3.86;96.11
13690;BME280;6917;52.194;9.894;2023-02-08T02:37:39;102799.00;;;-3.86;95.81
13690;BME280;6917;52.194;9.894;2023-02-08T02:40:13;102792.44;;;-3.92;95.96
13690;BME280;6917;52.194;9.894;2023-02-08T02:43:31;102791.31;;;-3.89;95.66
13690;BME280;6917;52.194;9.894;2023-02-08T02:46:26;102781.31;;;-3.87;95.97
13690;BME280;6917;52.194;9.894;2023-02-08T02:48:59;102781.63;;;-3.90;95.31
13690;BME280;6917;52.194;9.894;2023-02-08T02:51:30;102775.81;;;-3.85;95.37
13690;BME280;6917;52.194;9.894;2023-02-08T02:54:11;102778.81;;;-3.80;95.22
13690;BME280;6917;52.194;9.894;2023-02-08T02:56:41;102775.63;;;-3.84;94.80
13690;BME280;6917;52.194;9.894;2023-02-08T02:59:10;102772.28;;;-3.86;95.13
13690;BME280;6917;52.194;9.894;2023-02-08T03:01:37;102783.06;;;-3.96;95.01
13690;BME280;6917;52.194;9.894;2023-02-08T03:21:11;102787.22;;;-4.01;96.38
13690;BME280;6917;52.194;9.894;2023-02-08T03:26:49;102786.69;;;-4.31;96.44
13690;BME280;6917;52.194;9.894;2023-02-08T03:32:01;102776.91;;;-4.22;96.25
13690;BME280;6917;52.194;9.894;2023-02-08T03:37:44;102774.47;;;-4.15;96.07
13690;BME280;6917;52.194;9.894;2023-02-08T03:40:16;102773.47;;;-4.14;95.27
13690;BME280;6917;52.194;9.894;2023-02-08T03:42:45;102767.13;;;-4.13;95.69
13690;BME280;6917;52.194;9.894;2023-02-08T03:45:29;102764.28;;;-4.12;95.49
13690;BME280;6917;52.194;9.894;2023-02-08T03:47:59;102754.13;;;-4.08;95.02
13690;BME280;6917;52.194;9.894;2023-02-08T03:50:28;102760.97;;;-4.06;94.43
13690;BME280;6917;52.194;9.894;2023-02-08T03:52:55;102753.53;;;-4.02;94.26
13690;BME280;6917;52.194;9.894;2023-02-08T03:55:24;102755.72;;;-3.98;93.93
13690;BME280;6917;52.194;9.894;2023-02-08T03:57:57;102757.88;;;-3.93;94.13
13690;BME280;6917;52.194;9.894;2023-02-08T04:00:24;102742.41;;;-3.90;93.31
13690;BME280;6917;52.194;9.894;2023-02-08T04:03:26;102749.09;;;-3.85;92.95
13690;BME280;6917;52.194;9.894;2023-02-08T04:05:53;102733.25;;;-3.87;92.36
13690;BME280;6917;52.194;9.894;2023-02-08T04:08:19;102737.91;;;-3.89;92.08
13690;BME280;6917;52.194;9.894;2023-02-08T04:10:45;102738.91;;;-3.90;92.16
13690;BME280;6917;52.194;9.894;2023-02-08T04:13:11;102743.94;;;-3.87;91.32
13690;BME280;6917;52.194;9.894;2023-02-08T04:15:36;102742.75;;;-3.84;90.66
13690;BME280;6917;52.194;9.894;2023-02-08T04:18:02;102752.50;;;-3.67;90.42
13690;BME280;6917;52.194;9.894;2023-02-08T04:20:27;102752.63;;;-3.77;90.11
13690;BME280;6917;52.194;9.894;2023-02-08T04:22:52;102758.97;;;-3.78;89.26
13690;BME280;6917;52.194;9.894;2023-02-08T04:25:17;102759.81;;;-3.77;89.16
13690;BME280;6917;52.194;9.894;2023-02-08T04:27:43;102748.25;;;-3.86;89.11
13690;BME280;6917;52.194;9.894;2023-02-08T04:30:09;102754.38;;;-3.94;89.64
13690;BME280;6917;52.194;9.894;2023-02-08T04:32:34;102758.28;;;-3.88;89.28
13690;BME280;6917;52.194;9.894;2023-02-08T04:34:59;102757.28;;;-3.87;89.40
13690;BME280;6917;52.194;9.894;2023-02-08T04:37:25;102755.78;;;-3.81;89.26
13690;BME280;6917;52.194;9.894;2023-02-08T04:39:50;102753.97;;;-3.81;88.79
13690;BME280;6917;52.194;9.894;2023-02-08T04:42:15;102765.00;;;-3.76;88.67
13690;BME280;6917;52.194;9.894;2023-02-08T04:44:40;102758.06;;;-3.61;88.40
13690;BME280;6917;52.194;9.894;2023-02-08T04:47:06;102769.81;;;-3.45;87.67
13690;BME280;6917;52.194;9.894;2023-02-08T04:49:31;102770.50;;;-3.43;87.00
13690;BME280;6917;52.194;9.894;2023-02-08T04:51:57;102771.66;;;-3.46;86.91
13690;BME280;6917;52.194;9.894;2023-02-08T04:54:22;102780.34;;;-3.44;86.72
13690;BME280;6917;52.194;9.894;2023-02-08T04:56:47;102778.00;;;-3.47;86.64
13690;BME280;6917;52.194;9.894;2023-02-08T04:59:13;102778.84;;;-3.46;86.88
13690;BME280;6917;52.194;9.894;2023-02-08T05:01:38;102772.94;;;-3.50;86.99
13690;BME280;6917;52.194;9.894;2023-02-08T05:04:03;102777.47;;;-3.50;87.24
13690;BME280;6917;52.194;9.894;2023-02-08T05:06:29;102783.09;;;-3.62;86.92
13690;BME280;6917;52.194;9.894;2023-02-08T05:08:54;102774.88;;;-3.68;87.61
13690;BME280;6917;52.194;9.894;2023-02-08T05:11:21;102776.16;;;-3.80;87.75
13690;BME280;6917;52.194;9.894;2023-02-08T05:13:47;102785.66;;;-3.86;88.64
13690;BME280;6917;52.194;9.894;2023-02-08T05:16:12;102785.56;;;-4.02;89.23
13690;BME280;6917;52.194;9.894;2023-02-08T05:18:37;102793.41;;;-4.01;89.34
13690;BME280;6917;52.194;9.894;2023-02-08T05:21:03;102782.06;;;-4.21;90.51
13690;BME280;6917;52.194;9.894;2023-02-08T05:23:28;102803.22;;;-4.27;91.10
13690;BME280;6917;52.194;9.894;2023-02-08T05:25:54;102805.72;;;-4.26;92.68
13690;BME280;6917;52.194;9.894;2023-02-08T05:28:19;102793.91;;;-4.23;92.99
13690;BME280;6917;52.194;9.894;2023-02-08T05:30:45;102794.94;;;-4.42;93.91
13690;BME280;6917;52.194;9.894;2023-02-08T05:33:11;102807.06;;;-4.47;94.93
13690;BME280;6917;52.194;9.894;2023-02-08T05:35:36;102802.34;;;-4.54;94.96
13690;BME280;6917;52.194;9.894;2023-02-08T05:38:02;102796.34;;;-4.73;95.53
13690;BME280;6917;52.194;9.894;2023-02-08T05:40:27;102801.56;;;-4.82;96.26
13690;BME280;6917;52.194;9.894;2023-02-08T05:42:52;102796.41;;;-4.83;96.72
13690;BME280;6917;52.194;9.894;2023-02-08T05:45:18;102792.16;;;-4.76;97.38
13690;BME280;6917;52.194;9.894;2023-02-08T05:47:43;102797.00;;;-4.71;97.75
13690;BME280;6917;52.194;9.894;2023-02-08T05:50:11;102791.53;;;-4.70;98.09
13690;BME280;6917;52.194;9.894;2023-02-08T05:52:37;102796.66;;;-4.76;97.56
13690;BME280;6917;52.194;9.894;2023-02-08T05:55:02;102794.03;;;-4.86;97.24
13690;BME280;6917;52.194;9.894;2023-02-08T05:57:28;102787.19;;;-4.89;97.89
13690;BME280;6917;52.194;9.894;2023-02-08T05:59:53;102798.00;;;-4.90;97.63
13690;BME280;6917;52.194;9.894;2023-02-08T06:02:18;102795.88;;;-4.87;97.63
13690;BME280;6917;52.194;9.894;2023-02-08T06:04:44;102803.41;;;-4.82;97.92
13690;BME280;6917;52.194;9.894;2023-02-08T06:07:10;102800.53;;;-4.89;98.03
13690;BME280;6917;52.194;9.894;2023-02-08T06:09:35;102804.84;;;-4.88;98.02
13690;BME280;6917;52.194;9.894;2023-02-08T06:12:00;102806.16;;;-4.92;97.56
13690;BME280;6917;52.194;9.894;2023-02-08T06:14:26;102801.50;;;-4.72;97.64
13690;BME280;6917;52.194;9.894;2023-02-08T06:16:51;102806.47;;;-4.59;97.69
13690;BME280;6917;52.194;9.894;2023-02-08T06:19:16;102808.69;;;-4.72;97.49
13690;BME280;6917;52.194;9.894;2023-02-08T06:21:42;102804.66;;;-4.76;97.04
13690;BME280;6917;52.194;9.894;2023-02-08T06:24:07;102813.47;;;-4.58;97.56
13690;BME280;6917;52.194;9.894;2023-02-08T06:26:34;102811.94;;;-4.43;97.39
13690;BME280;6917;52.194;9.894;2023-02-08T06:29:00;102805.59;;;-4.42;96.49
13690;BME280;6917;52.194;9.894;2023-02-08T06:31:25;102810.13;;;-4.60;96.32
13690;BME280;6917;52.194;9.894;2023-02-08T06:33:50;102810.66;;;-4.57;95.31
13690;BME280;6917;52.194;9.894;2023-02-08T06:36:16;102810.13;;;-4.60;95.09
13690;BME280;6917;52.194;9.894;2023-02-08T06:38:41;102810.28;;;-4.62;95.17
13690;BME280;6917;52.194;9.894;2023-02-08T06:41:06;102808.28;;;-4.60;94.86
13690;BME280;6917;52.194;9.894;2023-02-08T06:43:32;102801.44;;;-4.62;95.40
13690;BME280;6917;52.194;9.894;2023-02-08T06:45:57;102807.97;;;-4.57;94.78
13690;BME280;6917;52.194;9.894;2023-02-08T06:48:22;102801.19;;;-4.51;95.24
13690;BME280;6917;52.194;9.894;2023-02-08T06:50:51;102805.53;;;-4.68;95.38
13690;BME280;6917;52.194;9.894;2023-02-08T06:53:16;102808.28;;;-4.78;95.57
13690;BME280;6917;52.194;9.894;2023-02-08T06:55:41;102811.56;;;-5.01;96.01
13690;BME280;6917;52.194;9.894;2023-02-08T06:58:07;102827.84;;;-5.04;96.63
13690;BME280;6917;52.194;9.894;2023-02-08T07:00:33;102822.41;;;-5.13;97.18
13690;BME280;6917;52.194;9.894;2023-02-08T07:02:58;102810.19;;;-4.88;97.87
13690;BME280;6917;52.194;9.894;2023-02-08T07:05:24;102804.69;;;-4.68;97.37
13690;BME280;6917;52.194;9.894;2023-02-08T07:07:50;102811.28;;;-4.63;97.73
13690;BME280;6917;52.194;9.894;2023-02-08T07:10:15;102808.81;;;-4.56;96.97
13690;BME280;6917;52.194;9.894;2023-02-08T07:12:40;102818.19;;;-4.52;96.94
13690;BME280;6917;52.194;9.894;2023-02-08T07:15:06;102815.50;;;-4.52;96.56
13690;BME280;6917;52.194;9.894;2023-02-08T07:17:31;102815.50;;;-4.52;96.63
13690;BME280;6917;52.194;9.894;2023-02-08T07:19:57;102817.19;;;-4.51;96.16
13690;BME280;6917;52.194;9.894;2023-02-08T07:22:22;102820.78;;;-4.42;95.42
13690;BME280;6917;52.194;9.894;2023-02-08T07:24:47;102808.63;;;-4.37;95.81
13690;BME280;6917;52.194;9.894;2023-02-08T07:27:13;102814.06;;;-4.29;95.85
13690;BME280;6917;52.194;9.894;2023-02-08T07:29:38;102807.19;;;-4.49;96.15
13690;BME280;6917;52.194;9.894;2023-02-08T07:32:05;102810.56;;;-4.65;96.62
13690;BME280;6917;52.194;9.894;2023-02-08T07:34:33;102816.06;;;-4.66;97.68
13690;BME280;6917;52.194;9.894;2023-02-08T07:36:59;102813.00;;;-4.54;97.58
13690;BME280;6917;52.194;9.894;2023-02-08T07:39:24;102820.22;;;-4.28;98.03
13690;BME280;6917;52.194;9.894;2023-02-08T07:41:50;102804.72;;;-4.25;97.86
13690;BME280;6917;52.194;9.894;2023-02-08T07:44:15;102799.97;;;-4.39;98.25
13690;BME280;6917;52.194;9.894;2023-02-08T07:46:40;102807.47;;;-4.34;98.92
13690;BME280;6917;52.194;9.894;2023-02-08T07:49:06;102806.81;;;-4.18;98.38
13690;BME280;6917;52.194;9.894;2023-02-08T07:51:31;102799.75;;;-4.02;98.15
13690;BME280;6917;52.194;9.894;2023-02-08T07:53:57;102797.25;;;-3.95;97.79
13690;BME280;6917;52.194;9.894;2023-02-08T07:56:22;102786.75;;;-3.97;97.19
13690;BME280;6917;52.194;9.894;2023-02-08T07:58:47;102779.41;;;-3.95;96.38
13690;BME280;6917;52.194;9.894;2023-02-08T08:01:13;102787.63;;;-3.88;95.27
13690;BME280;6917;52.194;9.894;2023-02-08T08:03:38;102797.16;;;-3.85;95.72
13690;BME280;6917;52.194;9.894;2023-02-08T08:06:03;102792.22;;;-3.72;95.08
13690;BME280;6917;52.194;9.894;2023-02-08T08:08:29;102790.97;;;-3.60;95.11
13690;BME280;6917;52.194;9.894;2023-02-08T08:10:54;102784.81;;;-3.52;95.01
13690;BME280;6917;52.194;9.894;2023-02-08T08:13:21;102785.84;;;-3.45;94.94
13690;BME280;6917;52.194;9.894;2023-02-08T08:15:47;102789.66;;;-3.48;94.83
13690;BME280;6917;52.194;9.894;2023-02-08T08:18:12;102786.97;;;-3.48;94.64
13690;BME280;6917;52.194;9.894;2023-02-08T08:20:37;102783.19;;;-3.45;94.63
13690;BME280;6917;52.194;9.894;2023-02-08T08:23:03;102784.19;;;-3.38;94.65
13690;BME280;6917;52.194;9.894;2023-02-08T08:25:28;102788.75;;;-3.31;94.97
13690;BME280;6917;52.194;9.894;2023-02-08T08:27:53;102787.06;;;-3.23;94.89
13690;BME280;6917;52.194;9.894;2023-02-08T08:30:19;102799.66;;;-3.16;94.70
13690;BME280;6917;52.194;9.894;2023-02-08T08:32:45;102791.63;;;-3.08;94.65
13690;BME280;6917;52.194;9.894;2023-02-08T08:35:10;102791.28;;;-3.05;94.47
13690;BME280;6917;52.194;9.894;2023-02-08T08:37:36;102789.00;;;-3.00;94.51
13690;BME280;6917;52.194;9.894;2023-02-08T08:40:02;102786.66;;;-2.94;94.87
13690;BME280;6917;52.194;9.894;2023-02-08T08:42:28;102785.47;;;-2.92;95.44
13690;BME280;6917;52.194;9.894;2023-02-08T08:44:53;102792.34;;;-2.81;95.56
13690;BME280;6917;52.194;9.894;2023-02-08T08:47:19;102789.53;;;-2.72;95.40
13690;BME280;6917;52.194;9.894;2023-02-08T08:49:44;102789.03;;;-2.67;95.05
13690;BME280;6917;52.194;9.894;2023-02-08T08:52:11;102785.34;;;-2.66;94.78
13690;BME280;6917;52.194;9.894;2023-02-08T08:54:36;102781.19;;;-2.60;94.53
13690;BME280;6917;52.194;9.894;2023-02-08T08:57:02;102774.66;;;-2.58;94.81
13690;BME280;6917;52.194;9.894;2023-02-08T08:59:27;102769.13;;;-2.48;95.20
13690;BME280;6917;52.194;9.894;2023-02-08T09:01:53;102777.16;;;-2.40;95.46
13690;BME280;6917;52.194;9.894;2023-02-08T09:04:18;102772.47;;;-2.54;94.67
13690;BME280;6917;52.194;9.894;2023-02-08T09:06:49;102774.66;;;-2.50;94.70
13690;BME280;6917;52.194;9.894;2023-02-08T09:09:15;102776.81;;;-2.37;94.66
13690;BME280;6917;52.194;9.894;2023-02-08T09:11:40;102774.66;;;-2.25;94.97
13690;BME280;6917;52.194;9.894;2023-02-08T09:14:06;102775.63;;;-2.10;94.90
13690;BME280;6917;52.194;9.894;2023-02-08T09:16:31;102767.59;;;-2.02;94.90
13690;BME280;6917;52.194;9.894;2023-02-08T09:19:05;102771.19;;;-1.78;92.12
13690;BME280;6917;52.194;9.894;2023-02-08T09:21:31;102770.78;;;-1.59;91.07
13690;BME280;6917;52.194;9.894;2023-02-08T09:23:57;102773.91;;;-1.47;89.71
13690;BME280;6917;52.194;9.894;2023-02-08T09:26:23;102768.72;;;-1.41;89.93
13690;BME280;6917;52.194;9.894;2023-02-08T09:28:50;102754.78;;;-1.36;89.56
13690;BME280;6917;52.194;9.894;2023-02-08T09:31:24;102777.03;;;-1.28;89.57
13690;BME280;6917;52.194;9.894;2023-02-08T09:33:51;102773.28;;;-1.18;89.54
13690;BME280;6917;52.194;9.894;2023-02-08T09:36:17;102775.94;;;-1.10;89.79
13690;BME280;6917;52.194;9.894;2023-02-08T09:38:43;102774.91;;;-1.09;89.90
13690;BME280;6917;52.194;9.894;2023-02-08T09:47:01;102769.97;;;-0.98;88.90
13690;BME280;6917;52.194;9.894;2023-02-08T09:49:33;102770.28;;;-0.93;88.25
13690;BME280;6917;52.194;9.894;2023-02-08T09:52:02;102779.13;;;-0.84;88.52
13690;BME280;6917;52.194;9.894;2023-02-08T09:54:35;102768.38;;;-0.84;88.27
13690;BME280;6917;52.194;9.894;2023-02-08T09:57:04;102764.13;;;-0.78;87.11
13690;BME280;6917;52.194;9.894;2023-02-08T09:59:33;102773.25;;;-0.65;87.70
13690;BME280;6917;52.194;9.894;2023-02-08T10:02:27;102769.19;;;-0.61;86.72
13690;BME280;6917;52.194;9.894;2023-02-08T10:05:03;102767.16;;;-0.58;85.36
13690;BME280;6917;52.194;9.894;2023-02-08T10:07:30;102770.06;;;-0.45;84.70
13690;BME280;6917;52.194;9.894;2023-02-08T10:09:59;102772.97;;;-0.32;83.81
13690;BME280;6917;52.194;9.894;2023-02-08T10:12:34;102763.38;;;-0.26;82.01
13690;BME280;6917;52.194;9.894;2023-02-08T10:15:19;102766.16;;;-0.20;81.59
13690;BME280;6917;52.194;9.894;2023-02-08T10:20:35;102765.25;;;-0.12;80.58
13690;BME280;6917;52.194;9.894;2023-02-08T10:28:43;102750.53;;;-0.02;79.68
13690;BME280;6917;52.194;9.894;2023-02-08T10:31:21;102767.59;;;0.06;78.95
13690;BME280;6917;52.194;9.894;2023-02-08T10:36:51;102752.75;;;0.10;78.46
13690;BME280;6917;52.194;9.894;2023-02-08T10:39:29;102752.09;;;0.08;80.23
13690;BME280;6917;52.194;9.894;2023-02-08T10:41:56;102758.44;;;0.29;81.81
13690;BME280;6917;52.194;9.894;2023-02-08T10:52:35;102758.69;;;0.49;81.67
13690;BME280;6917;52.194;9.894;2023-02-08T10:55:00;102750.34;;;0.44;80.33
13690;BME280;6917;52.194;9.894;2023-02-08T10:57:29;102752.09;;;0.52;80.50
13690;BME280;6917;52.194;9.894;2023-02-08T11:00:09;102741.59;;;0.57;80.18
13690;BME280;6917;52.194;9.894;2023-02-08T11:02:40;102742.25;;;0.59;80.10
13690;BME280;6917;52.194;9.894;2023-02-08T11:05:17;102740.91;;;0.70;79.92
13690;BME280;6917;52.194;9.894;2023-02-08T11:07:43;102743.50;;;0.78;79.35
13690;BME280;6917;52.194;9.894;2023-02-08T11:12:53;102735.88;;;1.17;79.68
13690;BME280;6917;52.194;9.894;2023-02-08T11:15:26;102726.81;;;1.04;78.93
13690;BME280;6917;52.194;9.894;2023-02-08T11:17:59;102724.63;;;0.93;79.83
13690;BME280;6917;52.194;9.894;2023-02-08T11:20:31;102727.75;;;0.96;79.79
13690;BME280;6917;52.194;9.894;2023-02-08T11:22:58;102723.78;;;1.13;80.06
13690;BME280;6917;52.194;9.894;2023-02-08T11:25:33;102710.31;;;1.13;79.60
13690;BME280;6917;52.194;9.894;2023-02-08T11:27:59;102706.44;;;1.16;78.06
13690;BME280;6917;52.194;9.894;2023-02-08T11:30:25;102701.53;;;1.26;77.84
13690;BME280;6917;52.194;9.894;2023-02-08T11:33:26;102706.53;;;1.51;77.34
13690;BME280;6917;52.194;9.894;2023-02-08T11:38:20;102698.44;;;1.78;76.61
13690;BME280;6917;52.194;9.894;2023-02-08T11:40:52;102702.31;;;1.69;76.13
13690;BME280;6917;52.194;9.894;2023-02-08T11:43:24;102705.19;;;1.68;75.71
13690;BME280;6917;52.194;9.894;2023-02-08T11:45:51;102699.88;;;1.74;75.92
13690;BME280;6917;52.194;9.894;2023-02-08T11:48:42;102710.25;;;2.12;75.66
13690;BME280;6917;52.194;9.894;2023-02-08T11:51:11;102706.16;;;2.23;74.83
13690;BME280;6917;52.194;9.894;2023-02-08T11:53:39;102694.88;;;2.13;73.40
13690;BME280;6917;52.194;9.894;2023-02-08T11:56:21;102690.81;;;2.23;73.20
13690;BME280;6917;52.194;9.894;2023-02-08T11:58:59;102683.13;;;2.27;72.32
13690;BME280;6917;52.194;9.894;2023-02-08T12:01:30;102680.63;;;2.19;71.32
13690;BME280;6917;52.194;9.894;2023-02-08T12:03:59;102675.22;;;2.19;70.41
13690;BME280;6917;52.194;9.894;2023-02-08T12:12:00;102671.63;;;2.46;68.92
13690;BME280;6917;52.194;9.894;2023-02-08T12:14:45;102664.72;;;2.44;68.34
13690;BME280;6917;52.194;9.894;2023-02-08T12:22:26;102661.66;;;2.47;66.67
13690;BME280;6917;52.194;9.894;2023-02-08T12:25:23;102659.19;;;2.72;66.85
13690;BME280;6917;52.194;9.894;2023-02-08T12:28:12;102667.94;;;2.80;68.19
13690;BME280;6917;52.194;9.894;2023-02-08T12:30:44;102660.69;;;2.87;69.53
13690;BME280;6917;52.194;9.894;2023-02-08T12:33:38;102666.28;;;2.79;69.83
13690;BME280;6917;52.194;9.894;2023-02-08T12:39:28;102661.34;;;2.89;70.05
13690;BME280;6917;52.194;9.894;2023-02-08T12:45:34;102644.47;;;2.87;69.56
13690;BME280;6917;52.194;9.894;2023-02-08T12:53:26;102638.28;;;3.00;69.18
13690;BME280;6917;52.194;9.894;2023-02-08T12:55:57;102634.09;;;2.84;68.17
13690;BME280;6917;52.194;9.894;2023-02-08T12:58:28;102630.38;;;2.85;67.82
13690;BME280;6917;52.194;9.894;2023-02-08T13:01:04;102622.47;;;2.84;68.08
13690;BME280;6917;52.194;9.894;2023-02-08T13:03:34;102620.81;;;2.83;67.48
13690;BME280;6917;52.194;9.894;2023-02-08T13:06:06;102613.13;;;2.86;67.51
13690;BME280;6917;52.194;9.894;2023-02-08T13:09:10;102613.97;;;2.93;66.87
13690;BME280;6917;52.194;9.894;2023-02-08T13:11:44;102603.38;;;2.79;66.62
13690;BME280;6917;52.194;9.894;2023-02-08T13:14:31;102601.94;;;2.89;66.80
13690;BME280;6917;52.194;9.894;2023-02-08T13:17:03;102598.81;;;2.79;66.59
13690;BME280;6917;52.194;9.894;2023-02-08T13:19:46;102591.75;;;2.65;66.87
13690;BME280;6917;52.194;9.894;2023-02-08T13:22:14;102600.28;;;2.75;67.14
13690;BME280;6917;52.194;9.894;2023-02-08T13:24:42;102590.09;;;2.77;66.91
13690;BME280;6917;52.194;9.894;2023-02-08T13:27:15;102586.97;;;2.74;67.33
13690;BME280;6917;52.194;9.894;2023-02-08T13:29:43;102575.56;;;2.85;67.58
13690;BME280;6917;52.194;9.894;2023-02-08T13:32:19;102574.72;;;3.11;67.21
13690;BME280;6917;52.194;9.894;2023-02-08T13:34:55;102569.94;;;2.99;66.67
13690;BME280;6917;52.194;9.894;2023-02-08T13:37:24;102573.47;;;3.07;66.98
13690;BME280;6917;52.194;9.894;2023-02-08T13:39:59;102563.94;;;2.84;66.56
13690;BME280;6917;52.194;9.894;2023-02-08T13:42:36;102560.59;;;2.82;66.91
13690;BME280;6917;52.194;9.894;2023-02-08T13:45:05;102564.34;;;2.94;67.56
13690;BME280;6917;52.194;9.894;2023-02-08T13:47:43;102559.16;;;2.86;67.38
13690;BME280;6917;52.194;9.894;2023-02-08T13:52:59;102536.72;;;2.59;66.84
13690;BME280;6917;52.194;9.894;2023-02-08T14:00:31;102531.34;;;2.66;67.57
13690;BME280;6917;52.194;9.894;2023-02-08T14:02:59;102541.28;;;2.59;67.34
13690;BME280;6917;52.194;9.894;2023-02-08T14:05:38;102538.41;;;2.60;67.90
13690;BME280;6917;52.194;9.894;2023-02-08T14:08:17;102537.75;;;2.58;67.37
13690;BME280;6917;52.194;9.894;2023-02-08T14:10:50;102529.03;;;2.56;67.44
13690;BME280;6917;52.194;9.894;2023-02-08T14:13:40;102542.13;;;2.53;67.80
13690;BME280;6917;52.194;9.894;2023-02-08T14:18:55;102539.22;;;2.61;67.95
13690;BME280;6917;52.194;9.894;2023-02-08T14:21:37;102541.72;;;2.69;68.95
13690;BME280;6917;52.194;9.894;2023-02-08T14:24:06;102537.13;;;2.69;69.94
13690;BME280;6917;52.194;9.894;2023-02-08T14:26:34;102545.66;;;2.66;68.97
13690;BME280;6917;52.194;9.894;2023-02-08T14:29:02;102528.63;;;2.59;69.45
13690;BME280;6917;52.194;9.894;2023-02-08T14:31:43;102527.41;;;2.62;69.49
13690;BME280;6917;52.194;9.894;2023-02-08T14:34:27;102529.25;;;2.61;70.11
13690;BME280;6917;52.194;9.894;2023-02-08T14:39:45;102531.94;;;2.48;69.83
13690;BME280;6917;52.194;9.894;2023-02-08T14:45:38;102527.56;;;2.41;69.82
13690;BME280;6917;52.194;9.894;2023-02-08T14:53:42;102507.22;;;2.45;70.30
13690;BME280;6917;52.194;9.894;2023-02-08T14:58:43;102502.06;;;2.50;71.43
13690;BME280;6917;52.194;9.894;2023-02-08T15:01:17;102498.53;;;2.49;71.56
13690;BME280;6917;52.194;9.894;2023-02-08T15:03:44;102504.97;;;2.35;72.52
13690;BME280;6917;52.194;9.894;2023-02-08T15:06:25;102503.28;;;2.41;73.24
13690;BME280;6917;52.194;9.894;2023-02-08T15:08:55;102503.50;;;2.32;73.97
13690;BME280;6917;52.194;9.894;2023-02-08T15:11:23;102507.84;;;2.20;74.84